Time;durP1;ratioP1;P1;durP2;ratioP2;P2;SDS_P1;SDS_P2;PMS_P1;PMS_P2;Temp;Humidity;BMP_temperature;BMP_pressure;BME280_temperature;BME280_humidity;BME280_pressure;Samples;Min_cycle;Max_cycle;Signal;HPM_P1;HPM_P2
2022/12/22 03:27:28;;;;;;;;;;;;;;;3.90;100.00;98574.75;6307060;22;19965;-89
2022/12/22 03:29:53;;;;;;;;;;;;;;;3.94;100.00;98578.09;6308548;22;19911;-90
2022/12/22 03:32:19;;;;;;;;;;;;;;;3.97;100.00;98562.28;6308804;22;20226;-89
2022/12/22 03:34:44;;;;;;;;;;;;;;;4.01;100.00;98579.63;6308883;22;19914;-87
2022/12/22 03:37:09;;;;;;;;;;;;;;;4.04;100.00;98558.53;6308633;22;19911;-90
2022/12/22 03:39:35;;;;;;;;;;;;;;;4.05;100.00;98557.59;6308426;22;20322;-86
2022/12/22 03:47:44;;;;;;;;;;;;;;;4.23;100.00;98565.72;6302547;22;19933;-83
2022/12/22 03:50:09;;;;;;;;;;;;;;;4.32;100.00;98568.91;6308504;22;20311;-87
2022/12/22 03:52:35;;;;;;;;;;;;;;;4.31;100.00;98568.94;6281250;22;20321;-88
2022/12/22 03:55:00;;;;;;;;;;;;;;;4.29;100.00;98571.63;6280775;22;19915;-89
2022/12/22 03:57:25;;;;;;;;;;;;;;;4.39;100.00;98566.00;6306625;22;19910;-87
2022/12/22 03:59:50;;;;;;;;;;;;;;;4.38;100.00;98567.78;6308162;22;19911;-88
2022/12/22 04:02:16;;;;;;;;;;;;;;;4.40;100.00;98563.34;6280698;22;20277;-87
2022/12/22 04:04:41;;;;;;;;;;;;;;;4.39;100.00;98559.03;6280769;22;19918;-87
2022/12/22 04:07:06;;;;;;;;;;;;;;;4.43;100.00;98563.22;6308088;22;20292;-88
2022/12/22 04:09:31;;;;;;;;;;;;;;;4.42;100.00;98553.66;6308026;22;19945;-87
2022/12/22 04:14:40;;;;;;;;;;;;;;;4.46;100.00;98554.41;6287968;22;19922;-86
2022/12/22 04:17:06;;;;;;;;;;;;;;;4.44;100.00;98558.84;6276938;22;19912;-84
2022/12/22 04:19:31;;;;;;;;;;;;;;;4.42;100.00;98547.53;6277128;22;19908;-86
2022/12/22 04:21:57;;;;;;;;;;;;;;;4.47;100.00;98548.25;6276906;22;20315;-85
2022/12/22 04:24:22;;;;;;;;;;;;;;;4.51;100.00;98544.59;6277024;22;19911;-85
2022/12/22 04:26:48;;;;;;;;;;;;;;;4.52;100.00;98555.03;6275441;22;19985;-85
2022/12/22 04:29:13;;;;;;;;;;;;;;;4.51;100.00;98555.06;6276990;22;19990;-85
2022/12/22 04:31:39;;;;;;;;;;;;;;;4.51;100.00;98560.31;6276726;22;20228;-86
2022/12/22 04:34:04;;;;;;;;;;;;;;;4.58;100.00;98564.44;6276797;22;19922;-85
2022/12/22 04:36:29;;;;;;;;;;;;;;;4.59;100.00;98557.41;6276902;22;19918;-85
2022/12/22 04:38:54;;;;;;;;;;;;;;;4.60;100.00;98559.13;6276883;22;19919;-85
2022/12/22 04:41:20;;;;;;;;;;;;;;;4.61;100.00;98556.44;6248331;22;20240;-86
2022/12/22 04:43:47;;;;;;;;;;;;;;;4.63;100.00;98562.50;6276274;22;20191;-85
2022/12/22 04:46:12;;;;;;;;;;;;;;;4.66;100.00;98569.38;6276645;22;20290;-86
2022/12/22 04:48:37;;;;;;;;;;;;;;;4.64;100.00;98576.44;6276893;22;19912;-86
2022/12/22 04:51:02;;;;;;;;;;;;;;;4.66;100.00;98569.38;6276842;22;19957;-86
2022/12/22 04:53:29;;;;;;;;;;;;;;;4.77;100.00;98582.09;6276789;22;19918;-88
2022/12/22 04:55:58;;;;;;;;;;;;;;;4.88;100.00;98586.03;6276835;22;19934;-86
2022/12/22 04:58:24;;;;;;;;;;;;;;;4.91;100.00;98587.66;6275305;22;19938;-85
2022/12/22 05:00:49;;;;;;;;;;;;;;;4.88;100.00;98588.66;6276662;22;19911;-88
2022/12/22 05:03:14;;;;;;;;;;;;;;;4.87;100.00;98584.31;6276786;22;19911;-88
2022/12/22 05:05:39;;;;;;;;;;;;;;;4.88;100.00;98575.53;6276911;22;19943;-88
2022/12/22 08:53:00;;;;;;;;;;;;;;;6.95;100.00;98703.63;6280373;22;19973;-91
2022/12/22 08:55:25;;;;;;;;;;;;;;;6.98;100.00;98719.28;6275689;22;19997;-86
2022/12/22 08:58:08;;;;;;;;;;;;;;;6.93;100.00;98723.06;6247943;22;20327;-89
2022/12/22 09:00:33;;;;;;;;;;;;;;;6.95;100.00;98716.78;6274257;22;19950;-87
2022/12/22 09:02:59;;;;;;;;;;;;;;;6.92;100.00;98727.47;6274261;22;19912;-86
2022/12/22 09:05:24;;;;;;;;;;;;;;;6.92;100.00;98730.09;6275629;22;19918;-87
2022/12/22 09:07:49;;;;;;;;;;;;;;;6.97;100.00;98730.72;6272252;22;19923;-88
2022/12/22 09:10:14;;;;;;;;;;;;;;;7.05;100.00;98735.66;6248584;22;20034;-86
2022/12/22 09:13:56;;;;;;;;;;;;;;;7.83;100.00;98739.06;5122408;27;19919;-87
2022/12/22 09:16:21;;;;;;;;;;;;;;;9.00;100.00;98756.09;5113958;27;20337;-87
2022/12/22 09:18:47;;;;;;;;;;;;;;;9.89;100.00;98751.28;5112295;27;19931;-88
2022/12/22 09:21:15;;;;;;;;;;;;;;;8.85;100.00;98768.34;5104269;27;19968;-89
2022/12/22 09:23:40;;;;;;;;;;;;;;;10.63;100.00;98759.44;5110561;27;19920;-85
2022/12/22 09:26:06;;;;;;;;;;;;;;;9.49;100.00;98771.97;5106941;28;20355;-88
2022/12/22 09:28:37;;;;;;;;;;;;;;;8.90;100.00;98769.81;5100570;28;19920;-86
2022/12/22 09:31:03;;;;;;;;;;;;;;;9.57;100.00;98777.72;5126364;27;20395;-84
2022/12/22 09:33:29;;;;;;;;;;;;;;;10.10;100.00;98782.72;5108209;27;19920;-83
2022/12/22 09:35:54;;;;;;;;;;;;;;;9.63;100.00;98790.59;5104734;28;19969;-81
2022/12/22 09:38:19;;;;;;;;;;;;;;;9.98;100.00;98795.72;5104621;28;19920;-82
2022/12/22 09:40:48;;;;;;;;;;;;;;;11.44;100.00;98810.16;5112778;28;19930;-85
2022/12/22 09:43:17;;;;;;;;;;;;;;;10.56;100.00;98817.19;5104023;28;19924;-84
2022/12/22 09:45:43;;;;;;;;;;;;;;;11.94;100.00;98825.69;5105094;27;19927;-83
2022/12/22 09:48:11;;;;;;;;;;;;;;;12.15;100.00;98805.72;5108524;27;21615;-84
2022/12/22 09:50:37;;;;;;;;;;;;;;;11.38;100.00;98825.59;5104180;28;19920;-83
2022/12/22 09:53:03;;;;;;;;;;;;;;;8.02;100.00;98834.00;5105453;28;19923;-87
2022/12/22 09:55:35;;;;;;;;;;;;;;;7.16;100.00;98833.50;5107883;27;19927;-84
2022/12/22 09:58:00;;;;;;;;;;;;;;;6.84;100.00;98840.19;5115113;27;19916;-85
2022/12/22 10:00:26;;;;;;;;;;;;;;;6.54;100.00;98854.56;5124793;27;19943;-83
2022/12/22 10:02:54;;;;;;;;;;;;;;;6.40;100.00;98846.38;5091343;27;19966;-84
2022/12/22 10:05:25;;;;;;;;;;;;;;;6.26;100.00;98853.97;5122601;27;19912;-83
2022/12/22 10:07:50;;;;;;;;;;;;;;;6.18;100.00;98859.53;5132535;27;19968;-83
2022/12/22 10:10:19;;;;;;;;;;;;;;;6.02;100.00;98850.56;5109978;28;20002;-85
2022/12/22 10:12:48;;;;;;;;;;;;;;;5.93;100.00;98857.81;5109769;28;19920;-83
2022/12/22 10:15:13;;;;;;;;;;;;;;;5.95;100.00;98849.88;5114391;28;19926;-84
2022/12/22 10:17:38;;;;;;;;;;;;;;;5.87;100.00;98855.47;5109999;28;20003;-85
2022/12/22 10:20:24;;;;;;;;;;;;;;;5.80;100.00;98867.09;5098366;28;20359;-83
2022/12/22 10:22:53;;;;;;;;;;;;;;;5.78;100.00;98859.28;5102450;28;19943;-83
2022/12/22 10:25:25;;;;;;;;;;;;;;;5.77;100.00;98880.38;5088619;28;19927;-83
2022/12/22 10:27:51;;;;;;;;;;;;;;;5.51;100.00;98882.19;5094613;28;19924;-83
2022/12/22 10:30:22;;;;;;;;;;;;;;;5.62;100.00;98879.19;5079153;28;19924;-84
2022/12/22 10:33:07;;;;;;;;;;;;;;;5.66;100.00;98887.78;5080665;28;20398;-83
2022/12/22 10:35:53;;;;;;;;;;;;;;;5.61;100.00;98894.06;5087211;28;19923;-83
2022/12/22 10:38:18;;;;;;;;;;;;;;;5.56;100.00;98893.38;5088667;28;19920;-84
2022/12/22 10:40:45;;;;;;;;;;;;;;;5.50;100.00;98896.22;5096591;28;19942;-84
2022/12/22 10:43:17;;;;;;;;;;;;;;;5.50;100.00;98888.34;5101547;28;20286;-83
2022/12/22 10:45:46;;;;;;;;;;;;;;;5.43;100.00;98886.88;5077260;28;20003;-84
2022/12/22 10:48:11;;;;;;;;;;;;;;;5.44;100.00;98899.06;5108143;28;19966;-83
2022/12/22 10:50:43;;;;;;;;;;;;;;;5.39;100.00;98906.28;5076402;28;19959;-83
2022/12/22 10:53:08;;;;;;;;;;;;;;;5.38;100.00;98908.06;5106578;28;20003;-83
2022/12/22 10:55:34;;;;;;;;;;;;;;;5.34;100.00;98906.44;5075426;28;20413;-83
2022/12/22 10:58:09;;;;;;;;;;;;;;;5.22;100.00;98915.63;5106263;28;19928;-83
2022/12/22 11:00:37;;;;;;;;;;;;;;;5.18;100.00;98923.66;5075369;28;19916;-85
2022/12/22 11:03:04;;;;;;;;;;;;;;;5.19;100.00;98931.47;5107985;28;19919;-83
2022/12/22 11:05:30;;;;;;;;;;;;;;;5.16;100.00;98931.59;5107847;28;19924;-83
2022/12/22 11:07:59;;;;;;;;;;;;;;;5.18;100.00;98935.00;5074889;28;19924;-82
2022/12/22 11:10:37;;;;;;;;;;;;;;;5.06;100.00;98945.94;5088162;28;19947;-83
2022/12/22 11:13:08;;;;;;;;;;;;;;;5.03;100.00;98943.44;5096855;28;19974;-84
2022/12/22 11:15:39;;;;;;;;;;;;;;;5.07;100.00;98947.66;5107974;28;19927;-82
2022/12/22 11:18:05;;;;;;;;;;;;;;;5.13;100.00;98954.47;5107579;28;19922;-83
2022/12/22 11:20:54;;;;;;;;;;;;;;;5.08;100.00;98962.50;5107601;28;20015;-83
2022/12/22 11:23:25;;;;;;;;;;;;;;;4.95;100.00;98959.44;5072499;28;19927;-83
2022/12/22 11:25:55;;;;;;;;;;;;;;;5.01;100.00;98959.22;5107519;28;19928;-83
2022/12/22 11:28:23;;;;;;;;;;;;;;;5.03;100.00;98954.78;5109116;28;19924;-83
2022/12/22 11:30:58;;;;;;;;;;;;;;;5.04;100.00;98966.13;5093703;28;19916;-84
2022/12/22 11:33:26;;;;;;;;;;;;;;;5.07;100.00;98966.03;5091124;28;20303;-83
2022/12/22 11:35:56;;;;;;;;;;;;;;;5.03;100.00;98967.91;5093880;28;19917;-84
2022/12/22 11:38:40;;;;;;;;;;;;;;;6.24;100.00;98975.06;5092573;28;20011;-83
2022/12/22 11:41:34;;;;;;;;;;;;;;;5.79;100.00;98967.91;5093251;28;20263;-86
2022/12/22 11:44:13;;;;;;;;;;;;;;;5.27;100.00;98971.47;5076450;28;19991;-86
2022/12/22 11:47:16;;;;;;;;;;;;;;;5.08;100.00;98975.63;5094676;28;19920;-86
2022/12/22 11:49:48;;;;;;;;;;;;;;;5.06;100.00;98973.06;5051946;28;20303;-86
2022/12/22 11:52:32;;;;;;;;;;;;;;;5.05;100.00;98978.34;5099342;28;20365;-86
2022/12/22 11:55:15;;;;;;;;;;;;;;;4.90;100.00;98984.97;5093256;28;20010;-86
2022/12/22 11:57:59;;;;;;;;;;;;;;;4.89;100.00;98984.09;5094536;28;20283;-86
2022/12/22 12:00:26;;;;;;;;;;;;;;;4.93;100.00;98986.63;5094508;28;19916;-86
2022/12/22 12:03:00;;;;;;;;;;;;;;;4.91;100.00;98987.56;5092400;28;19916;-86
2022/12/22 12:05:44;;;;;;;;;;;;;;;4.87;100.00;98987.69;5094401;28;19912;-90
2022/12/22 12:08:19;;;;;;;;;;;;;;;5.41;100.00;98989.41;5091643;28;20023;-86
2022/12/22 12:10:47;;;;;;;;;;;;;;;5.68;100.00;98986.72;5092861;28;19946;-86
2022/12/22 12:13:12;;;;;;;;;;;;;;;5.84;100.00;98987.03;5093912;28;20355;-87
2022/12/22 12:15:39;;;;;;;;;;;;;;;5.98;100.00;98989.16;5092900;28;19916;-86
2022/12/22 12:18:08;;;;;;;;;;;;;;;6.04;100.00;98988.09;5092770;28;19916;-87
2022/12/22 12:20:52;;;;;;;;;;;;;;;6.09;100.00;98992.25;5092782;28;19950;-86
2022/12/22 12:23:17;;;;;;;;;;;;;;;6.14;100.00;98992.97;5091273;28;20015;-87
2022/12/22 12:26:06;;;;;;;;;;;;;;;6.19;100.00;98987.53;5092811;28;20013;-87
2022/12/22 12:28:41;;;;;;;;;;;;;;;6.25;100.00;98989.06;5086982;28;19923;-86
2022/12/22 12:31:10;;;;;;;;;;;;;;;6.24;100.00;98996.09;5087999;28;19916;-87
2022/12/22 12:33:45;;;;;;;;;;;;;;;6.29;100.00;98990.66;5093773;28;19916;-86
2022/12/22 12:36:16;;;;;;;;;;;;;;;6.32;100.00;98988.78;5075599;28;19916;-85
2022/12/22 12:38:52;;;;;;;;;;;;;;;6.34;100.00;98997.47;5091317;28;19942;-86
2022/12/22 12:41:20;;;;;;;;;;;;;;;6.35;100.00;98993.03;5092443;28;19920;-86
2022/12/22 12:43:47;;;;;;;;;;;;;;;6.33;100.00;98990.50;5092617;28;19916;-86
2022/12/22 12:46:35;;;;;;;;;;;;;;;6.37;100.00;98996.50;5092010;28;19924;-85
2022/12/22 12:49:01;;;;;;;;;;;;;;;6.40;100.00;98984.97;5092144;28;19923;-86
2022/12/22 12:51:48;;;;;;;;;;;;;;;6.42;100.00;98993.69;5091423;28;19916;-87
2022/12/22 12:54:25;;;;;;;;;;;;;;;6.42;100.00;98988.44;5092200;28;19923;-85
2022/12/22 12:56:58;;;;;;;;;;;;;;;6.50;100.00;98989.81;5092243;28;19916;-86
2022/12/22 12:59:39;;;;;;;;;;;;;;;6.53;100.00;98980.97;5092145;28;19973;-85
2022/12/22 13:02:24;;;;;;;;;;;;;;;6.51;100.00;98991.56;5092174;28;20401;-84
2022/12/22 13:05:14;;;;;;;;;;;;;;;6.57;100.00;98994.84;5093167;28;20025;-86
2022/12/22 13:07:58;;;;;;;;;;;;;;;6.60;100.00;99002.63;5092203;28;20018;-85
2022/12/22 13:10:24;;;;;;;;;;;;;;;6.59;100.00;99003.53;5093283;28;20301;-86
2022/12/22 13:12:50;;;;;;;;;;;;;;;6.59;100.00;98995.66;5091868;28;19920;-86
2022/12/22 13:15:32;;;;;;;;;;;;;;;6.60;100.00;98998.22;5091737;28;20366;-86
2022/12/22 13:17:59;;;;;;;;;;;;;;;6.59;100.00;98991.25;5092967;28;19958;-89
2022/12/22 13:20:35;;;;;;;;;;;;;;;6.63;100.00;98992.00;5091945;28;19916;-86
2022/12/22 13:23:02;;;;;;;;;;;;;;;6.62;100.00;98982.38;5090528;28;19916;-87
2022/12/22 13:25:44;;;;;;;;;;;;;;;6.65;100.00;98992.78;5087406;28;20363;-87
2022/12/22 13:28:35;;;;;;;;;;;;;;;6.67;100.00;98983.91;5091898;28;20363;-88
2022/12/22 13:31:11;;;;;;;;;;;;;;;6.66;100.00;98982.19;5093253;28;20355;-86
2022/12/22 13:33:38;;;;;;;;;;;;;;;6.68;100.00;98975.06;5092041;28;20133;-87
2022/12/22 13:36:05;;;;;;;;;;;;;;;6.66;100.00;98974.28;5091702;28;19923;-87
2022/12/22 13:38:34;;;;;;;;;;;;;;;6.66;100.00;98976.94;5090440;28;19927;-91
2022/12/22 13:41:12;;;;;;;;;;;;;;;6.69;100.00;98976.81;5091922;28;19916;-85
2022/12/22 13:43:40;;;;;;;;;;;;;;;6.68;100.00;98982.97;5091817;28;19916;-86
2022/12/22 13:46:07;;;;;;;;;;;;;;;6.69;100.00;98979.44;5092975;28;20387;-88
2022/12/22 13:48:33;;;;;;;;;;;;;;;6.70;100.00;98977.66;5091658;28;19923;-85
2022/12/22 13:51:00;;;;;;;;;;;;;;;6.73;100.00;98977.53;5091754;28;19921;-88
2022/12/22 13:53:29;;;;;;;;;;;;;;;6.75;100.00;98986.25;5090258;28;19916;-86
2022/12/22 13:56:00;;;;;;;;;;;;;;;6.75;100.00;98977.47;5091787;28;19916;-90
2022/12/22 13:58:27;;;;;;;;;;;;;;;6.80;100.00;98971.13;5091909;28;19927;-86
2022/12/22 14:01:02;;;;;;;;;;;;;;;6.83;100.00;98967.47;5090699;28;19916;-86
2022/12/22 14:03:27;;;;;;;;;;;;;;;6.80;100.00;98962.38;5095350;28;19912;-85
2022/12/22 14:05:52;;;;;;;;;;;;;;;6.78;100.00;98961.56;5095441;28;20329;-85
2022/12/22 14:08:21;;;;;;;;;;;;;;;6.80;100.00;98959.72;5094243;28;19987;-85
2022/12/22 14:10:47;;;;;;;;;;;;;;;6.82;100.00;98963.16;5096546;28;19985;-85
2022/12/22 14:13:17;;;;;;;;;;;;;;;6.83;100.00;98967.47;5096241;28;19924;-85
2022/12/22 14:15:43;;;;;;;;;;;;;;;6.81;100.00;98962.31;5095175;28;19947;-89
2022/12/22 14:18:13;;;;;;;;;;;;;;;6.84;100.00;98963.94;5095186;28;19916;-85
2022/12/22 14:20:39;;;;;;;;;;;;;;;6.85;100.00;98960.41;5096445;28;19916;-85
2022/12/22 14:23:07;;;;;;;;;;;;;;;6.85;100.00;98953.34;5093836;28;20279;-88
2022/12/22 14:25:34;;;;;;;;;;;;;;;6.86;100.00;98962.97;5094991;28;19939;-84
2022/12/22 14:28:01;;;;;;;;;;;;;;;6.91;100.00;98962.78;5095079;28;19916;-84
2022/12/22 14:30:33;;;;;;;;;;;;;;;6.90;100.00;98967.19;5096285;28;19920;-86
2022/12/22 14:33:13;;;;;;;;;;;;;;;6.93;100.00;98968.84;5096229;28;19916;-84
2022/12/22 14:35:38;;;;;;;;;;;;;;;6.94;100.00;98965.28;5096311;28;19923;-84
2022/12/22 14:38:04;;;;;;;;;;;;;;;6.96;100.00;98958.19;5094709;28;19916;-87
2022/12/22 14:40:31;;;;;;;;;;;;;;;6.96;100.00;98968.72;5094637;28;19927;-91
2022/12/22 14:43:07;;;;;;;;;;;;;;;6.95;100.00;98961.72;5094811;28;19973;-93
2022/12/22 14:45:32;;;;;;;;;;;;;;;6.99;100.00;98963.31;5095761;28;19934;-86
2022/12/22 14:47:58;;;;;;;;;;;;;;;7.00;100.00;98959.75;5095865;28;19916;-84
2022/12/22 14:50:27;;;;;;;;;;;;;;;7.02;100.00;98955.28;5095762;28;20325;-85
2022/12/22 14:52:57;;;;;;;;;;;;;;;7.04;100.00;98956.09;5094348;28;19923;-85
2022/12/22 14:55:30;;;;;;;;;;;;;;;7.06;100.00;98962.13;5094264;28;20432;-86
2022/12/22 14:58:00;;;;;;;;;;;;;;;7.07;100.00;98960.38;5094235;28;19923;-90
2022/12/22 15:00:28;;;;;;;;;;;;;;;7.06;100.00;98950.75;5095520;28;19916;-86
2022/12/22 15:02:57;;;;;;;;;;;;;;;7.07;100.00;98957.75;5095439;28;20393;-87
2022/12/22 15:05:25;;;;;;;;;;;;;;;7.09;100.00;98959.38;5094042;28;19916;-85
2022/12/22 15:07:51;;;;;;;;;;;;;;;7.11;100.00;98955.81;5091049;28;19920;-86
2022/12/22 15:10:17;;;;;;;;;;;;;;;7.12;100.00;98952.28;5093605;28;20074;-85
2022/12/22 15:12:43;;;;;;;;;;;;;;;7.13;100.00;98957.47;5093792;28;20363;-84
2022/12/22 15:15:18;;;;;;;;;;;;;;;7.15;100.00;98952.13;5094048;28;19923;-86
2022/12/22 15:17:45;;;;;;;;;;;;;;;7.17;100.00;98952.94;5093287;28;20299;-84
2022/12/22 15:20:21;;;;;;;;;;;;;;;7.20;100.00;98950.19;5095076;28;20008;-87
2022/12/22 15:22:46;;;;;;;;;;;;;;;7.17;100.00;98953.78;5092605;28;19969;-85
2022/12/22 15:25:16;;;;;;;;;;;;;;;7.19;100.00;98951.09;5093848;28;20011;-84
2022/12/22 15:27:42;;;;;;;;;;;;;;;7.19;100.00;98949.31;5093809;28;19916;-84
2022/12/22 15:30:08;;;;;;;;;;;;;;;7.21;100.00;98949.22;5088885;28;20389;-85
2022/12/22 15:32:33;;;;;;;;;;;;;;;7.21;100.00;98941.31;5093107;28;19969;-84
2022/12/22 15:35:01;;;;;;;;;;;;;;;7.21;100.00;98946.59;5092334;28;19920;-89
2022/12/22 15:37:26;;;;;;;;;;;;;;;7.24;100.00;98951.75;5089853;28;20294;-88
2022/12/22 15:39:51;;;;;;;;;;;;;;;7.24;100.00;98941.19;5087525;28;19920;-88
2022/12/22 15:42:17;;;;;;;;;;;;;;;7.24;100.00;98952.63;5094151;28;19924;-88
2022/12/22 15:44:42;;;;;;;;;;;;;;;7.26;100.00;98944.66;5083239;28;20006;-87
2022/12/22 15:47:09;;;;;;;;;;;;;;;7.27;100.00;98951.63;5092849;28;20424;-85
2022/12/22 15:49:36;;;;;;;;;;;;;;;7.29;100.00;98955.03;5110189;28;19917;-85
2022/12/22 15:52:03;;;;;;;;;;;;;;;7.28;100.00;98948.91;5079794;28;19921;-85
2022/12/22 15:54:29;;;;;;;;;;;;;;;7.30;100.00;98953.28;5092444;28;20389;-86
2022/12/22 15:56:55;;;;;;;;;;;;;;;7.30;100.00;98946.22;5092635;28;19924;-85
2022/12/22 15:59:24;;;;;;;;;;;;;;;7.31;100.00;98953.22;5092884;28;22024;-85
2022/12/22 16:01:49;;;;;;;;;;;;;;;7.30;100.00;98942.72;5089992;28;19924;-85
2022/12/22 16:04:15;;;;;;;;;;;;;;;7.31;100.00;98942.66;5091613;28;19920;-84
2022/12/22 16:06:41;;;;;;;;;;;;;;;7.30;100.00;98946.22;5079535;28;20336;-85
2022/12/22 16:09:08;;;;;;;;;;;;;;;7.31;100.00;98941.78;5093008;28;19927;-84
2022/12/22 16:11:36;;;;;;;;;;;;;;;7.34;100.00;98937.28;5091138;28;19986;-84
2022/12/22 16:14:01;;;;;;;;;;;;;;;7.36;100.00;98930.13;5094258;28;20010;-84
2022/12/22 16:16:26;;;;;;;;;;;;;;;7.37;100.00;98931.88;5092805;28;19963;-84
2022/12/22 16:18:52;;;;;;;;;;;;;;;7.36;100.00;98922.22;5088913;28;19924;-84
2022/12/22 16:21:22;;;;;;;;;;;;;;;7.36;100.00;98924.03;5088013;28;20017;-91
2022/12/22 16:23:48;;;;;;;;;;;;;;;7.38;100.00;98915.13;5088730;28;19924;-85
2022/12/22 16:26:15;;;;;;;;;;;;;;;7.38;100.00;98922.16;5085205;28;20386;-84
2022/12/22 16:28:41;;;;;;;;;;;;;;;7.38;100.00;98917.75;5091211;28;19920;-84
2022/12/22 16:31:13;;;;;;;;;;;;;;;7.36;100.00;98914.31;5084969;28;19931;-85
2022/12/22 16:33:38;;;;;;;;;;;;;;;7.36;100.00;98911.69;5084510;28;19921;-83
2022/12/22 16:36:03;;;;;;;;;;;;;;;7.36;100.00;98906.44;5085110;28;19965;-84
2022/12/22 16:38:29;;;;;;;;;;;;;;;7.38;100.00;98909.00;5087693;28;19927;-83
2022/12/22 16:40:54;;;;;;;;;;;;;;;7.38;100.00;98901.94;5079293;28;19924;-84
2022/12/22 16:43:20;;;;;;;;;;;;;;;7.38;100.00;98898.44;5107015;27;19924;-82
2022/12/22 16:45:45;;;;;;;;;;;;;;;7.39;100.00;98897.53;5108976;28;20019;-83
2022/12/22 16:48:17;;;;;;;;;;;;;;;7.40;100.00;98896.59;5089096;28;20459;-83
2022/12/22 16:50:44;;;;;;;;;;;;;;;7.41;100.00;98895.69;5088772;28;20070;-85
2022/12/22 16:53:10;;;;;;;;;;;;;;;7.39;100.00;98898.38;5082862;28;19989;-84
2022/12/22 16:55:36;;;;;;;;;;;;;;;7.39;100.00;98890.47;5086104;28;20321;-84
2022/12/22 16:58:01;;;;;;;;;;;;;;;7.42;100.00;98892.97;5072452;28;19916;-88
2022/12/22 17:00:28;;;;;;;;;;;;;;;7.73;100.00;98875.78;5114640;27;19938;-85
2022/12/22 17:02:55;;;;;;;;;;;;;;;7.57;100.00;98874.78;5086718;28;19916;-84
2022/12/22 17:05:23;;;;;;;;;;;;;;;7.49;100.00;98879.53;5090967;28;19920;-85
2022/12/22 17:07:49;;;;;;;;;;;;;;;7.49;100.00;98871.63;5091204;28;20011;-85
2022/12/22 17:10:14;;;;;;;;;;;;;;;7.46;100.00;98868.19;5090659;28;21754;-85
2022/12/22 17:12:40;;;;;;;;;;;;;;;7.44;100.00;98864.75;5090955;28;20041;-87
2022/12/22 17:15:08;;;;;;;;;;;;;;;7.48;100.00;98869.91;5085210;28;19920;-85
2022/12/22 17:17:35;;;;;;;;;;;;;;;7.48;100.00;98870.75;5089518;28;20356;-85
2022/12/22 17:20:00;;;;;;;;;;;;;;;7.48;100.00;98865.47;5086568;28;19920;-83
2022/12/22 17:22:30;;;;;;;;;;;;;;;7.47;100.00;98858.50;5085706;28;20077;-84
2022/12/22 17:24:56;;;;;;;;;;;;;;;7.51;100.00;98859.22;5090455;28;19920;-85
2022/12/22 17:27:26;;;;;;;;;;;;;;;7.50;100.00;98857.50;5077873;28;19929;-85
2022/12/22 17:29:51;;;;;;;;;;;;;;;7.51;100.00;98864.50;5073464;28;19947;-85
2022/12/22 17:32:17;;;;;;;;;;;;;;;7.51;100.00;98848.69;5090220;28;20367;-86
2022/12/22 17:34:43;;;;;;;;;;;;;;;7.51;100.00;98838.97;5104133;28;19920;-84
2022/12/22 17:37:13;;;;;;;;;;;;;;;7.51;100.00;98833.72;5093718;28;19920;-84
2022/12/22 17:39:38;;;;;;;;;;;;;;;7.52;100.00;98834.59;5089296;28;19954;-85
2022/12/22 17:42:13;;;;;;;;;;;;;;;7.53;100.00;98833.63;5092823;28;20430;-86
2022/12/22 17:44:38;;;;;;;;;;;;;;;7.52;100.00;98831.94;5088675;28;19923;-82
2022/12/22 17:47:04;;;;;;;;;;;;;;;7.54;100.00;98827.44;5075425;28;20387;-84
2022/12/22 17:49:29;;;;;;;;;;;;;;;7.53;100.00;98826.59;5123626;27;19916;-84
2022/12/22 17:51:54;;;;;;;;;;;;;;;7.54;100.00;98824.81;5085282;28;19967;-84
2022/12/22 17:54:22;;;;;;;;;;;;;;;7.55;100.00;98824.75;5090748;28;19920;-84
2022/12/22 17:56:48;;;;;;;;;;;;;;;7.54;100.00;98822.19;5113027;27;20279;-85
2022/12/22 17:59:13;;;;;;;;;;;;;;;7.56;100.00;98812.41;5098150;28;19927;-86
2022/12/22 18:01:39;;;;;;;;;;;;;;;7.54;100.00;98817.75;5091204;28;19920;-85
2022/12/22 18:04:08;;;;;;;;;;;;;;;7.54;100.00;98809.84;5100674;28;20375;-82
2022/12/22 18:06:35;;;;;;;;;;;;;;;7.56;100.00;98808.00;5129099;27;20009;-86
2022/12/22 18:09:01;;;;;;;;;;;;;;;7.55;100.00;98813.34;5094171;28;19973;-82
2022/12/22 18:11:26;;;;;;;;;;;;;;;7.55;100.00;98814.19;5088857;28;20374;-85
2022/12/22 18:13:52;;;;;;;;;;;;;;;7.56;100.00;98815.94;5106046;28;19920;-87
2022/12/22 18:16:19;;;;;;;;;;;;;;;7.59;100.00;98805.22;5085929;28;19920;-83
2022/12/22 18:18:44;;;;;;;;;;;;;;;7.56;100.00;98808.00;5085309;28;19916;-84
2022/12/22 18:21:17;;;;;;;;;;;;;;;7.58;100.00;98802.69;5088743;28;20331;-85
2022/12/22 18:23:43;;;;;;;;;;;;;;;7.58;100.00;98802.69;5087063;28;19973;-85
2022/12/22 18:26:12;;;;;;;;;;;;;;;7.57;100.00;98796.53;5094343;28;20283;-83
2022/12/22 18:28:37;;;;;;;;;;;;;;;7.58;100.00;98805.31;5086791;28;19940;-85
2022/12/22 18:31:05;;;;;;;;;;;;;;;7.57;100.00;98795.69;5098057;28;19920;-85
2022/12/22 18:33:30;;;;;;;;;;;;;;;7.58;100.00;98792.97;5101515;28;20010;-84
2022/12/22 18:35:57;;;;;;;;;;;;;;;7.59;100.00;98785.91;5092053;28;20030;-85
2022/12/22 18:38:28;;;;;;;;;;;;;;;7.61;100.00;98786.69;5091187;28;20007;-88
2022/12/22 18:40:53;;;;;;;;;;;;;;;7.60;100.00;98790.28;5093874;28;19997;-85
2022/12/22 18:43:27;;;;;;;;;;;;;;;7.60;100.00;98787.63;5091557;28;19975;-88
2022/12/22 18:45:53;;;;;;;;;;;;;;;7.60;100.00;98785.84;5075022;28;19969;-85
2022/12/22 18:48:18;;;;;;;;;;;;;;;7.62;100.00;98777.84;5074208;28;20008;-86
2022/12/22 18:50:43;;;;;;;;;;;;;;;7.62;100.00;98777.84;5046558;28;20017;-85
2022/12/22 18:53:23;;;;;;;;;;;;;;;7.61;100.00;98769.09;5064053;28;19928;-85
2022/12/22 18:55:48;;;;;;;;;;;;;;;7.68;100.00;98767.03;5055989;28;19920;-85
2022/12/22 18:58:14;;;;;;;;;;;;;;;7.67;100.00;98769.75;5073047;28;20016;-85
2022/12/22 19:00:40;;;;;;;;;;;;;;;7.64;100.00;98768.09;5055449;28;20023;-85
2022/12/22 19:03:13;;;;;;;;;;;;;;;7.64;100.00;98758.41;5054305;28;19970;-86
2022/12/22 19:05:39;;;;;;;;;;;;;;;7.62;100.00;98746.22;5056089;28;19963;-86
2022/12/22 19:08:07;;;;;;;;;;;;;;;7.62;100.00;98754.97;5061000;28;19959;-86
2022/12/22 19:10:34;;;;;;;;;;;;;;;7.63;100.00;98732.97;5055128;28;19970;-88
2022/12/22 19:13:11;;;;;;;;;;;;;;;;;;;;;
2022/12/22 19:15:38;;;;;;;;;;;;;;;7.66;100.00;98737.25;5052752;28;19931;-88
2022/12/22 19:18:04;;;;;;;;;;;;;;;7.66;100.00;98734.63;5056960;28;20462;-87
2022/12/22 19:20:29;;;;;;;;;;;;;;;7.68;100.00;98729.28;5052541;28;19917;-87
2022/12/22 19:22:55;;;;;;;;;;;;;;;7.67;100.00;98725.75;5085438;28;20011;-89
2022/12/22 19:25:22;;;;;;;;;;;;;;;7.67;100.00;98722.28;5093375;28;19990;-84
2022/12/22 19:27:50;;;;;;;;;;;;;;;7.65;100.00;98719.72;5093272;28;19920;-85
2022/12/22 19:30:25;;;;;;;;;;;;;;;7.68;100.00;98708.19;5091877;28;19945;-88
2022/12/22 19:32:56;;;;;;;;;;;;;;;7.68;100.00;98703.75;5080922;28;19946;-88
2022/12/22 19:35:23;;;;;;;;;;;;;;;7.69;100.00;98699.31;5091997;28;19920;-85
2022/12/22 19:37:49;;;;;;;;;;;;;;;7.68;100.00;98698.47;5089343;28;19927;-85
2022/12/22 19:40:15;;;;;;;;;;;;;;;7.70;100.00;98691.34;5090794;28;20016;-83
2022/12/22 19:42:42;;;;;;;;;;;;;;;7.71;100.00;98682.50;5093228;28;19916;-85
2022/12/22 19:45:28;;;;;;;;;;;;;;;7.71;100.00;98681.66;5093216;28;20255;-91
2022/12/22 19:47:54;;;;;;;;;;;;;;;7.68;100.00;98682.66;5074991;28;19920;-89
2022/12/22 19:50:24;;;;;;;;;;;;;;;7.72;100.00;98683.34;5074273;28;20444;-88
2022/12/22 19:52:50;;;;;;;;;;;;;;;7.71;100.00;98677.22;5113100;27;20302;-88
2022/12/22 19:55:15;;;;;;;;;;;;;;;7.75;100.00;98678.78;5092527;28;19927;-90
2022/12/22 19:57:42;;;;;;;;;;;;;;;7.73;100.00;98682.44;5090941;28;19927;-86
2022/12/22 20:00:15;;;;;;;;;;;;;;;7.75;100.00;98683.22;5090740;28;19982;-83
2022/12/22 20:02:40;;;;;;;;;;;;;;;7.76;100.00;98680.50;5092857;28;19916;-84
2022/12/22 20:05:21;;;;;;;;;;;;;;;7.75;100.00;98678.78;5094008;28;19916;-88
2022/12/22 20:07:47;;;;;;;;;;;;;;;7.75;100.00;98660.31;5087500;28;19927;-85
2022/12/22 20:10:12;;;;;;;;;;;;;;;7.76;100.00;98651.47;5073669;28;19913;-84
2022/12/22 20:12:38;;;;;;;;;;;;;;;7.77;100.00;98644.41;5117448;27;19926;-87
2022/12/22 20:15:13;;;;;;;;;;;;;;;7.77;100.00;98642.66;5092125;28;20439;-86
2022/12/22 20:17:38;;;;;;;;;;;;;;;7.78;100.00;98636.44;5090631;28;20409;-84